Ivy, Virginia
Current Conditions -  °F | °C
As of 12:53 PM on Wednesday 28 Jan 2015 (Local Time) from KCHO Reporting Station
Clear Clear  
Wind Chill: 31°   Ceiling: Unl
Heat Index: 38°   Visibility: 10mi
Dew Point:   Wind: 10mph
Humidity: 21%   Direction: 330°NNW
Pressure: 30.22"   Gusts: NA
Location:  38.06°N, 78.6°W
Report Text: KCHO 281753Z 33009KT 10SM CLR 03/M17 A3022 RMK AO2 SLP236 T00331172 10039 21028 50005
Loading
Personal Weather Stations






























Interactive Weather Map New forecast layout! Learn more

10-Day Weather Forecast

Advertisements
Track Severe Weather on mobile